createdAt,value
2022-11-23T00:00:48.382Z,6.90
2022-11-23T00:03:16.676Z,6.90
2022-11-23T00:05:45.951Z,7.30
2022-11-23T00:08:13.860Z,6.90
2022-11-23T00:10:41.991Z,6.90
2022-11-23T00:13:09.922Z,6.90
2022-11-23T00:15:37.789Z,6.90
2022-11-23T00:18:05.712Z,6.80
2022-11-23T00:20:33.580Z,6.90
2022-11-23T00:23:02.815Z,6.90
2022-11-23T00:25:30.736Z,6.90
2022-11-23T00:27:58.644Z,6.90
2022-11-23T00:30:26.534Z,6.80
2022-11-23T00:32:55.986Z,6.90
2022-11-23T00:35:24.084Z,6.90
2022-11-23T00:37:51.948Z,6.90
2022-11-23T00:40:21.215Z,6.90
2022-11-23T00:42:49.103Z,6.90
2022-11-23T00:45:17.155Z,7.00
2022-11-23T00:47:45.020Z,7.00
2022-11-23T00:50:12.940Z,7.00
2022-11-23T00:52:40.850Z,7.00
2022-11-23T00:55:09.500Z,6.60
2022-11-23T00:57:38.841Z,7.00
2022-11-23T01:00:08.447Z,6.90
2022-11-23T01:02:37.126Z,6.90
2022-11-23T01:05:05.263Z,7.00
2022-11-23T01:07:33.484Z,6.90
2022-11-23T01:10:01.473Z,6.90
2022-11-23T01:12:30.434Z,6.80
2022-11-23T01:14:59.989Z,6.90
2022-11-23T01:17:27.886Z,6.90
2022-11-23T01:19:55.799Z,6.90
2022-11-23T01:22:23.942Z,7.00
2022-11-23T01:24:52.319Z,7.00
2022-11-23T01:27:20.230Z,7.00
2022-11-23T01:29:48.106Z,7.00
2022-11-23T01:32:17.356Z,7.10
2022-11-23T01:34:45.270Z,7.10
2022-11-23T01:37:13.181Z,7.00
2022-11-23T01:39:41.125Z,6.80
2022-11-23T01:42:10.922Z,7.10
2022-11-23T01:44:43.091Z,7.20
2022-11-23T01:47:11.557Z,7.20
2022-11-23T01:49:44.433Z,7.20
2022-11-23T01:52:16.255Z,7.20
2022-11-23T01:54:49.471Z,7.20
2022-11-23T01:57:21.889Z,7.20
2022-11-23T01:59:50.682Z,7.20
2022-11-23T02:02:18.888Z,6.80
2022-11-23T02:04:51.546Z,7.20
2022-11-23T02:07:20.767Z,7.30
2022-11-23T02:09:49.638Z,7.30
2022-11-23T02:12:17.782Z,7.30
2022-11-23T02:14:46.659Z,7.20
2022-11-23T02:17:14.792Z,6.80
2022-11-23T02:19:56.943Z,7.30
2022-11-23T02:22:31.752Z,7.30
2022-11-23T02:25:03.366Z,7.30
2022-11-23T02:27:32.821Z,7.30
2022-11-23T02:30:02.127Z,6.60
2022-11-23T02:32:31.552Z,7.30
2022-11-23T02:34:59.399Z,7.20
2022-11-23T02:37:27.323Z,7.20
2022-11-23T02:39:57.993Z,7.10
2022-11-23T02:42:27.166Z,7.10
2022-11-23T02:45:06.734Z,7.10
2022-11-23T02:47:34.790Z,8.20
2022-11-23T02:50:02.719Z,7.10
2022-11-23T02:52:30.609Z,7.10
2022-11-23T02:54:58.487Z,7.10
2022-11-23T02:57:26.350Z,7.10
2022-11-23T02:59:54.237Z,7.00
2022-11-23T03:02:23.495Z,7.00
2022-11-23T03:04:51.486Z,7.00
2022-11-23T03:07:19.427Z,7.10
2022-11-23T03:09:47.428Z,8.90
2022-11-23T03:12:16.336Z,7.00
2022-11-23T03:14:44.444Z,7.00
2022-11-23T03:17:12.334Z,7.00
2022-11-23T03:19:41.591Z,8.50
2022-11-23T03:22:09.668Z,8.40
2022-11-23T03:24:37.581Z,7.00
2022-11-23T03:27:05.705Z,7.00
2022-11-23T03:29:33.848Z,7.00
2022-11-23T03:32:01.984Z,7.00
2022-11-23T03:34:29.920Z,7.10
2022-11-23T03:36:59.153Z,7.10
2022-11-23T03:39:27.068Z,7.10
2022-11-23T03:41:55.107Z,8.90
2022-11-23T03:44:23.013Z,7.10
2022-11-23T03:46:51.448Z,7.10
2022-11-23T03:49:19.460Z,6.60
2022-11-23T03:51:47.628Z,7.10
2022-11-23T03:54:16.880Z,7.10
2022-11-23T03:56:44.772Z,7.10
2022-11-23T03:59:12.695Z,7.10
2022-11-23T04:01:40.618Z,7.10
2022-11-23T04:04:08.838Z,7.10
2022-11-23T04:06:36.734Z,7.10
2022-11-23T04:09:04.630Z,7.10
2022-11-23T04:11:33.901Z,8.30
2022-11-23T04:14:01.803Z,7.10
2022-11-23T04:16:29.835Z,7.10
2022-11-23T04:18:57.687Z,7.20
2022-11-23T04:21:25.626Z,7.20
2022-11-23T04:23:53.482Z,7.20
2022-11-23T04:26:21.351Z,8.50
2022-11-23T04:28:50.715Z,7.20
2022-11-23T04:31:18.628Z,7.10
2022-11-23T04:33:46.574Z,7.10
2022-11-23T04:36:14.506Z,7.10
2022-11-23T04:38:42.426Z,8.20
2022-11-23T04:41:10.985Z,7.10
2022-11-23T04:43:38.937Z,7.10
2022-11-23T04:46:08.266Z,7.10
2022-11-23T04:48:36.131Z,7.10
2022-11-23T04:51:04.095Z,7.00
2022-11-23T04:53:32.202Z,7.00
2022-11-23T04:56:00.097Z,7.00
2022-11-23T04:58:30.306Z,7.00
2022-11-23T05:01:02.418Z,8.40
2022-11-23T05:03:34.889Z,7.00
2022-11-23T05:06:03.230Z,7.00
2022-11-23T05:08:31.261Z,9.00
2022-11-23T05:10:59.570Z,6.90
2022-11-23T05:13:27.449Z,6.90
2022-11-23T05:15:55.339Z,6.80
2022-11-23T05:18:23.248Z,7.60
2022-11-23T05:20:52.488Z,6.80
2022-11-23T05:23:20.359Z,6.80
2022-11-23T05:25:48.450Z,7.90
2022-11-23T05:28:39.143Z,6.80
2022-11-23T05:31:06.349Z,6.70
2022-11-23T05:33:34.227Z,6.70
2022-11-23T05:36:03.662Z,6.60
2022-11-23T05:38:31.563Z,6.50
2022-11-23T05:40:59.476Z,6.50
2022-11-23T05:43:27.429Z,6.30
2022-11-23T05:45:55.519Z,6.30
2022-11-23T05:48:23.408Z,6.20
2022-11-23T05:50:52.023Z,6.20
2022-11-23T05:53:21.429Z,6.50
2022-11-23T05:55:49.590Z,6.00
2022-11-23T05:58:17.614Z,6.00
2022-11-23T06:00:45.471Z,5.80
2022-11-23T06:03:13.331Z,6.40
2022-11-23T06:05:41.229Z,6.40
2022-11-23T06:08:09.249Z,6.60
2022-11-23T06:10:38.621Z,5.90
2022-11-23T06:13:06.490Z,6.60
2022-11-23T06:15:34.383Z,6.80
2022-11-23T06:18:02.521Z,6.80
2022-11-23T06:20:30.932Z,6.90
2022-11-23T06:22:58.826Z,7.00
2022-11-23T06:25:26.769Z,6.00
2022-11-23T06:28:00.009Z,5.90
2022-11-23T06:30:29.270Z,6.20
2022-11-23T06:32:57.190Z,5.90
2022-11-23T06:35:25.641Z,6.20
2022-11-23T06:37:54.796Z,6.30
2022-11-23T06:40:22.738Z,5.90
2022-11-23T06:42:50.660Z,5.80
2022-11-23T06:45:19.991Z,6.20
2022-11-23T06:47:47.878Z,6.40
2022-11-23T06:50:16.459Z,5.30
2022-11-23T06:52:44.484Z,5.80
2022-11-23T06:55:12.412Z,6.20
2022-11-23T06:57:40.332Z,5.80
2022-11-23T07:00:11.156Z,5.80
2022-11-23T07:02:40.594Z,5.80
2022-11-23T07:05:09.311Z,6.00
2022-11-23T07:07:37.318Z,5.80
2022-11-23T07:10:07.499Z,6.30
2022-11-23T07:12:35.619Z,5.80
2022-11-23T07:15:03.526Z,6.40
2022-11-23T07:17:31.394Z,6.00
2022-11-23T07:20:00.964Z,6.20
2022-11-23T07:22:28.895Z,6.90
2022-11-23T07:24:56.811Z,6.70
2022-11-23T07:27:24.726Z,6.10
2022-11-23T07:29:52.643Z,6.10
2022-11-23T07:32:20.603Z,6.20
2022-11-23T07:34:48.477Z,6.20
2022-11-23T07:37:17.726Z,6.50
2022-11-23T07:40:01.417Z,6.40
2022-11-23T07:42:36.760Z,6.50
2022-11-23T07:45:09.254Z,6.90
2022-11-23T07:47:37.365Z,6.60
2022-11-23T07:50:06.685Z,6.60
2022-11-23T07:52:37.591Z,6.70
2022-11-23T07:55:06.694Z,6.90
2022-11-23T07:57:34.615Z,6.80
2022-11-23T08:00:02.622Z,6.90
2022-11-23T08:02:30.914Z,6.90
2022-11-23T08:04:58.861Z,7.00
2022-11-23T08:07:26.757Z,7.00
2022-11-23T08:09:56.063Z,7.00
2022-11-23T08:12:23.954Z,7.10
2022-11-23T08:14:51.854Z,7.10
2022-11-23T08:17:19.740Z,7.20
2022-11-23T08:19:48.077Z,7.20
2022-11-23T08:22:16.639Z,7.30
2022-11-23T08:24:44.491Z,7.30
2022-11-23T08:27:13.755Z,7.20
2022-11-23T08:29:41.643Z,7.40
2022-11-23T08:32:09.548Z,7.30
2022-11-23T08:34:37.447Z,7.40
2022-11-23T08:37:05.449Z,6.90
2022-11-23T08:39:33.334Z,7.50
2022-11-23T08:42:01.241Z,7.50
2022-11-23T08:44:30.965Z,7.40
2022-11-23T08:46:59.009Z,7.60
2022-11-23T08:49:26.929Z,7.60
2022-11-23T08:51:55.458Z,7.70
2022-11-23T08:54:24.195Z,7.70
2022-11-23T08:56:52.195Z,7.80
2022-11-23T08:59:20.337Z,7.80
2022-11-23T09:01:49.707Z,7.90
2022-11-23T09:04:32.087Z,9.00
2022-11-23T09:07:00.080Z,8.00
2022-11-23T09:09:28.001Z,9.60
2022-11-23T09:11:55.972Z,8.20
2022-11-23T09:14:23.882Z,8.30
2022-11-23T09:16:53.199Z,8.40
2022-11-23T09:19:21.869Z,8.00
2022-11-23T09:21:49.992Z,8.40
2022-11-23T09:24:18.027Z,10.30
2022-11-23T09:26:45.947Z,8.80
2022-11-23T09:29:13.854Z,8.50
2022-11-23T09:31:42.334Z,8.80
2022-11-23T09:34:13.074Z,8.90
2022-11-23T09:36:41.083Z,9.70
2022-11-23T09:39:09.378Z,9.20
2022-11-23T09:42:06.841Z,9.20
2022-11-23T09:44:49.355Z,9.60
2022-11-23T09:47:33.535Z,9.60
2022-11-23T09:50:11.663Z,9.80
2022-11-23T09:52:42.855Z,9.80
2022-11-23T09:55:18.251Z,10.10
2022-11-23T09:57:48.869Z,8.60
2022-11-23T10:00:21.285Z,9.70
2022-11-23T10:02:49.608Z,9.80
2022-11-23T10:05:21.270Z,10.50
2022-11-23T10:08:02.740Z,10.70
2022-11-23T10:10:41.644Z,11.20
2022-11-23T10:13:26.046Z,9.60
2022-11-23T10:16:07.357Z,9.60
2022-11-23T10:18:45.299Z,11.40
2022-11-23T10:21:24.980Z,9.50
2022-11-23T10:23:55.494Z,9.60
2022-11-23T10:26:29.069Z,9.00
2022-11-23T10:28:59.686Z,9.10
2022-11-23T10:31:29.455Z,10.50
2022-11-23T10:34:05.463Z,9.50
2022-11-23T10:36:36.522Z,10.00
2022-11-23T10:39:17.688Z,10.60
2022-11-23T10:41:46.221Z,10.70
2022-11-23T10:44:26.661Z,10.20
2022-11-23T10:46:54.634Z,10.20
2022-11-23T10:49:24.134Z,10.20
2022-11-23T10:51:58.536Z,9.70
2022-11-23T10:54:30.588Z,10.20
2022-11-23T10:57:00.870Z,10.20
2022-11-23T10:59:32.051Z,10.20
2022-11-23T11:02:14.567Z,12.00
2022-11-23T11:04:42.614Z,10.10
2022-11-23T11:07:24.720Z,10.10
2022-11-23T11:09:55.014Z,10.30
2022-11-23T11:12:22.986Z,10.40
2022-11-23T11:15:11.260Z,11.10
2022-11-23T11:17:42.011Z,10.60
2022-11-23T11:20:31.339Z,10.70
2022-11-23T11:23:03.290Z,10.70
2022-11-23T11:25:33.678Z,11.80
2022-11-23T11:28:03.505Z,10.70
2022-11-23T11:30:44.024Z,10.80
2022-11-23T11:33:18.707Z,10.80
2022-11-23T11:35:50.562Z,10.80
2022-11-23T11:38:25.358Z,10.90
2022-11-23T11:40:54.091Z,12.00
2022-11-23T11:43:37.922Z,11.00
2022-11-23T11:46:29.160Z,11.00
2022-11-23T11:49:01.182Z,11.10
2022-11-23T11:51:34.682Z,10.70
2022-11-23T11:54:13.567Z,12.50
2022-11-23T11:56:45.056Z,12.50
2022-11-23T11:59:17.559Z,11.50
2022-11-23T12:01:55.191Z,10.20
2022-11-23T12:04:28.943Z,11.00
2022-11-23T12:07:05.930Z,11.00
2022-11-23T12:09:40.842Z,12.60
2022-11-23T12:12:15.863Z,10.90
2022-11-23T12:14:44.974Z,10.90
2022-11-23T12:17:52.364Z,10.90
2022-11-23T12:20:26.237Z,10.80
2022-11-23T12:23:07.455Z,10.90
2022-11-23T12:25:39.641Z,10.70
2022-11-23T12:28:28.169Z,11.00
2022-11-23T12:31:06.664Z,12.60
2022-11-23T12:36:35.461Z,12.50
2022-11-23T12:39:16.686Z,12.60
2022-11-23T12:41:52.575Z,11.30
2022-11-23T12:44:49.232Z,12.40
2022-11-23T12:47:30.272Z,10.70
2022-11-23T12:50:10.370Z,11.70
2022-11-23T12:52:51.013Z,10.70
2022-11-23T12:55:24.894Z,10.50
2022-11-23T12:58:02.445Z,10.40
2022-11-23T13:00:36.220Z,10.40
2022-11-23T13:03:40.794Z,10.30
2022-11-23T13:07:05.557Z,10.20
2022-11-23T13:09:51.301Z,10.10
2022-11-23T13:12:32.248Z,10.00
2022-11-23T13:15:17.583Z,10.00
2022-11-23T13:17:53.767Z,10.80
2022-11-23T13:20:39.558Z,9.80
2022-11-23T13:23:07.721Z,9.80
2022-11-23T13:25:36.974Z,9.70
2022-11-23T13:28:06.511Z,9.60
2022-11-23T13:31:14.148Z,9.50
2022-11-23T13:33:37.845Z,9.50
2022-11-23T13:36:11.357Z,10.50
2022-11-23T13:38:44.578Z,9.50
2022-11-23T13:41:42.545Z,9.50
2022-11-23T13:44:18.178Z,9.20
2022-11-23T13:47:01.778Z,9.50
2022-11-23T13:49:32.664Z,9.40
2022-11-23T13:52:26.182Z,9.40
2022-11-23T13:55:22.292Z,9.40
2022-11-23T13:58:24.590Z,9.40
2022-11-23T14:00:54.510Z,9.40
2022-11-23T14:03:49.481Z,10.10
2022-11-23T14:06:41.777Z,9.30
2022-11-23T14:09:17.235Z,9.30
2022-11-23T14:11:56.784Z,9.30
2022-11-23T14:14:28.776Z,9.20
2022-11-23T14:17:35.455Z,9.20
2022-11-23T14:20:29.113Z,9.10
2022-11-23T14:23:20.382Z,9.10
2022-11-23T14:26:02.552Z,9.10
2022-11-23T14:28:43.466Z,11.10
2022-11-23T14:31:22.661Z,8.70
2022-11-23T14:33:56.705Z,8.80
2022-11-23T14:36:36.178Z,10.60
2022-11-23T14:39:37.540Z,10.60
2022-11-23T14:42:12.729Z,9.90
2022-11-23T14:44:42.757Z,8.60
2022-11-23T14:47:12.260Z,8.50
2022-11-23T14:49:50.598Z,8.80
2022-11-23T14:52:22.301Z,8.60
2022-11-23T14:54:52.077Z,8.30
2022-11-23T14:57:22.488Z,8.60
2022-11-23T14:59:53.312Z,8.50
2022-11-23T15:02:35.078Z,9.80
2022-11-23T15:05:08.530Z,9.90
2022-11-23T15:07:51.471Z,8.40
2022-11-23T15:10:43.029Z,7.50
2022-11-23T15:13:22.528Z,7.80
2022-11-23T15:15:53.525Z,7.80
2022-11-23T15:18:32.179Z,7.30
2022-11-23T15:21:03.084Z,8.30
2022-11-23T15:23:36.667Z,9.40
2022-11-23T15:26:07.834Z,7.50
2022-11-23T15:28:38.732Z,7.50
2022-11-23T15:31:28.229Z,8.30
2022-11-23T15:33:59.234Z,7.30
2022-11-23T15:36:30.116Z,8.30
2022-11-23T15:39:01.189Z,7.10
2022-11-23T15:41:30.654Z,6.90
2022-11-23T15:44:00.354Z,6.90
2022-11-23T15:46:35.987Z,7.10
2022-11-23T15:49:06.570Z,6.60
2022-11-23T15:51:39.042Z,6.80
2022-11-23T15:54:16.977Z,8.50
2022-11-23T15:56:48.485Z,6.70
2022-11-23T15:59:29.460Z,6.80
2022-11-23T16:01:57.953Z,6.90
2022-11-23T16:04:29.163Z,7.60
2022-11-23T16:06:57.599Z,6.50
2022-11-23T16:09:54.206Z,6.50
2022-11-23T16:12:28.168Z,8.20
2022-11-23T16:14:57.856Z,6.40
2022-11-23T16:17:26.702Z,6.40
2022-11-23T16:19:56.074Z,6.40
2022-11-23T16:22:29.716Z,6.60
2022-11-23T16:25:06.705Z,7.00
2022-11-23T16:27:35.281Z,8.00
2022-11-23T16:30:04.751Z,7.90
2022-11-23T16:32:33.421Z,4.90
2022-11-23T16:35:16.934Z,6.00
2022-11-23T16:37:45.288Z,5.90
2022-11-23T16:40:15.444Z,6.40
2022-11-23T16:42:43.862Z,5.80
2022-11-23T16:45:12.179Z,5.90
2022-11-23T16:47:53.947Z,6.00
2022-11-23T16:50:22.788Z,5.80
2022-11-23T16:52:51.063Z,6.10
2022-11-23T16:55:20.363Z,5.80
2022-11-23T16:57:49.179Z,5.70
2022-11-23T17:00:20.050Z,6.20
2022-11-23T17:02:48.055Z,5.80
2022-11-23T17:05:17.532Z,5.70
2022-11-23T17:07:46.296Z,7.20
2022-11-23T17:10:15.101Z,5.60
2022-11-23T17:12:50.973Z,5.70
2022-11-23T17:15:20.130Z,5.50
2022-11-23T17:17:48.071Z,6.10
2022-11-23T17:20:17.402Z,6.20
2022-11-23T17:22:45.850Z,7.20
2022-11-23T17:25:15.371Z,6.20
2022-11-23T17:27:47.095Z,5.00
2022-11-23T17:30:16.802Z,5.90
2022-11-23T17:32:44.799Z,5.30
2022-11-23T17:35:12.767Z,5.20
2022-11-23T17:37:40.764Z,5.20
2022-11-23T17:40:15.468Z,6.00
2022-11-23T17:42:44.780Z,5.20
2022-11-23T17:45:13.445Z,5.20
2022-11-23T17:47:43.471Z,5.20
2022-11-23T17:50:13.791Z,5.20
2022-11-23T17:52:44.349Z,5.20
2022-11-23T17:55:13.433Z,5.90
2022-11-23T17:57:41.665Z,5.30
2022-11-23T18:00:17.190Z,5.20
2022-11-23T18:02:45.242Z,5.20
2022-11-23T18:05:17.997Z,5.90
2022-11-23T18:07:49.666Z,5.20
2022-11-23T18:10:24.098Z,5.90
2022-11-23T18:12:58.766Z,5.30
2022-11-23T18:15:30.185Z,6.30
2022-11-23T18:18:03.161Z,5.10
2022-11-23T18:20:32.629Z,5.60
2022-11-23T18:23:00.591Z,5.10
2022-11-23T18:25:28.608Z,5.10
2022-11-23T18:27:56.503Z,5.80
2022-11-23T18:30:24.443Z,4.90
2022-11-23T18:32:53.758Z,6.20
2022-11-23T18:35:21.691Z,5.00
2022-11-23T18:37:49.644Z,7.00
2022-11-23T18:40:17.714Z,5.60
2022-11-23T18:42:45.855Z,4.90
2022-11-23T18:45:13.929Z,6.00
2022-11-23T18:47:41.819Z,4.80
2022-11-23T18:50:11.448Z,6.10
2022-11-23T18:52:39.326Z,6.70
2022-11-23T18:55:08.391Z,5.60
2022-11-23T18:57:36.302Z,5.10
2022-11-23T19:00:06.513Z,5.40
2022-11-23T19:02:34.667Z,5.30
2022-11-23T19:05:02.571Z,6.50
2022-11-23T19:07:31.864Z,6.20
2022-11-23T19:10:00.131Z,6.90
2022-11-23T19:12:30.411Z,5.80
2022-11-23T19:14:58.326Z,6.20
2022-11-23T19:17:27.343Z,6.00
2022-11-23T19:19:56.393Z,6.20
2022-11-23T19:22:24.381Z,6.30
2022-11-23T19:24:53.720Z,6.30
2022-11-23T19:27:21.687Z,6.40
2022-11-23T19:29:49.591Z,5.80
2022-11-23T19:32:17.583Z,6.50
2022-11-23T19:34:45.470Z,6.70
2022-11-23T19:37:13.377Z,6.60
2022-11-23T19:39:41.312Z,6.60
2022-11-23T19:42:10.735Z,7.10
2022-11-23T19:44:38.683Z,6.70
2022-11-23T19:47:13.706Z,6.00
2022-11-23T19:49:43.735Z,6.70
2022-11-23T19:52:11.664Z,8.10
2022-11-23T19:54:39.897Z,6.70
2022-11-23T19:57:08.358Z,6.70
2022-11-23T19:59:37.761Z,7.20
2022-11-23T20:02:05.878Z,7.80
2022-11-23T20:04:34.351Z,6.50
2022-11-23T20:07:02.422Z,6.40
2022-11-23T20:09:30.822Z,6.50
2022-11-23T20:11:59.012Z,6.50
2022-11-23T20:14:26.943Z,7.60
2022-11-23T20:16:56.767Z,6.60
2022-11-23T20:19:24.660Z,6.60
2022-11-23T20:21:53.245Z,6.60
2022-11-23T20:24:21.183Z,6.80
2022-11-23T20:26:49.045Z,6.60
2022-11-23T20:29:17.126Z,6.50
2022-11-23T20:31:45.251Z,6.50
2022-11-23T20:34:19.981Z,6.50
2022-11-23T20:36:49.946Z,6.50
2022-11-23T20:39:17.962Z,6.50
2022-11-23T20:41:48.298Z,6.50
2022-11-23T20:44:16.569Z,6.40
2022-11-23T20:49:33.811Z,6.50
2022-11-23T20:52:02.022Z,6.40
2022-11-23T20:54:30.016Z,6.20
2022-11-23T20:56:59.963Z,6.40
2022-11-23T20:59:28.122Z,6.30
2022-11-23T21:01:56.073Z,6.50
2022-11-23T21:04:24.197Z,6.30
2022-11-23T21:06:54.486Z,6.30
2022-11-23T21:09:22.411Z,6.30
2022-11-23T21:12:07.693Z,6.30
2022-11-23T21:14:35.892Z,6.30
2022-11-23T21:17:04.717Z,6.40
2022-11-23T21:19:34.153Z,6.40
2022-11-23T21:22:06.867Z,6.50
2022-11-23T21:24:36.037Z,6.40
2022-11-23T21:27:05.160Z,6.70
2022-11-23T21:29:34.047Z,6.40
2022-11-23T21:32:02.365Z,6.60
2022-11-23T21:34:31.710Z,6.40
2022-11-23T21:37:00.045Z,6.50
2022-11-23T21:39:30.913Z,6.40
2022-11-23T21:41:58.871Z,6.50
2022-11-23T21:44:26.788Z,6.50
2022-11-23T21:46:54.773Z,6.50
2022-11-23T21:49:23.236Z,6.50
2022-11-23T21:51:51.144Z,6.50
2022-11-23T21:54:19.016Z,6.50
2022-11-23T21:56:48.495Z,6.50
2022-11-23T21:59:16.424Z,6.50
2022-11-23T22:01:44.381Z,6.50
2022-11-23T22:04:15.417Z,6.50
2022-11-23T22:06:45.078Z,6.50
2022-11-23T22:09:14.039Z,6.50
2022-11-23T22:11:44.215Z,6.50
2022-11-23T22:14:15.489Z,6.40
2022-11-23T22:16:45.050Z,6.50
2022-11-23T22:19:14.680Z,6.50
2022-11-23T22:21:44.178Z,6.50
2022-11-23T22:24:16.355Z,6.80
2022-11-23T22:26:44.778Z,6.60
2022-11-23T22:29:16.102Z,6.60
2022-11-23T22:31:44.279Z,6.60
2022-11-23T22:34:13.569Z,6.60
2022-11-23T22:36:41.764Z,6.60
2022-11-23T22:39:10.303Z,6.50
2022-11-23T22:41:39.113Z,6.50
2022-11-23T22:44:09.241Z,6.50
2022-11-23T22:46:39.899Z,6.50
2022-11-23T22:49:07.910Z,6.50
2022-11-23T22:51:35.754Z,6.50
2022-11-23T22:54:03.755Z,6.50
2022-11-23T22:56:32.699Z,6.50
2022-11-23T22:59:00.927Z,6.40
2022-11-23T23:01:30.480Z,6.40
2022-11-23T23:04:01.794Z,6.50
2022-11-23T23:06:33.581Z,6.30
2022-11-23T23:09:03.078Z,6.30
2022-11-23T23:11:32.412Z,6.30
2022-11-23T23:14:00.572Z,6.30
2022-11-23T23:16:28.822Z,6.30
2022-11-23T23:18:57.545Z,6.20
2022-11-23T23:21:28.426Z,6.20
2022-11-23T23:23:58.616Z,6.50
2022-11-23T23:26:27.615Z,6.10
2022-11-23T23:28:56.960Z,6.40
2022-11-23T23:31:25.171Z,6.10
2022-11-23T23:33:54.449Z,6.10
2022-11-23T23:36:24.015Z,6.00
2022-11-23T23:38:53.613Z,6.00
2022-11-23T23:41:22.052Z,6.00
2022-11-23T23:43:50.124Z,5.90
2022-11-23T23:46:18.170Z,6.90
2022-11-23T23:48:46.508Z,6.40
2022-11-23T23:51:16.436Z,6.80
2022-11-23T23:53:45.678Z,5.80
2022-11-23T23:56:16.386Z,6.10
2022-11-23T23:58:44.734Z,5.90
